sensor_id;sensor_type;location;lat;lon;timestamp;P1;durP1;ratioP1;P2;durP2;ratioP2
48014;SDS011;33780;51.034;7.120;2023-07-20T00:02:23;2.13;;;1.00;;
48014;SDS011;33780;51.034;7.120;2023-07-20T00:04:49;2.72;;;0.90;;
48014;SDS011;33780;51.034;7.120;2023-07-20T00:07:14;4.07;;;1.15;;
48014;SDS011;33780;51.034;7.120;2023-07-20T00:09:40;2.30;;;0.93;;
48014;SDS011;33780;51.034;7.120;2023-07-20T00:12:06;1.60;;;0.80;;
48014;SDS011;33780;51.034;7.120;2023-07-20T00:14:32;1.48;;;0.80;;
48014;SDS011;33780;51.034;7.120;2023-07-20T00:16:58;2.05;;;0.90;;
48014;SDS011;33780;51.034;7.120;2023-07-20T00:19:24;2.88;;;1.27;;
48014;SDS011;33780;51.034;7.120;2023-07-20T00:21:51;3.28;;;1.00;;
48014;SDS011;33780;51.034;7.120;2023-07-20T00:24:17;1.63;;;0.80;;
48014;SDS011;33780;51.034;7.120;2023-07-20T00:26:43;1.25;;;0.70;;
48014;SDS011;33780;51.034;7.120;2023-07-20T00:29:09;3.92;;;1.15;;
48014;SDS011;33780;51.034;7.120;2023-07-20T00:31:36;1.33;;;0.75;;
48014;SDS011;33780;51.034;7.120;2023-07-20T00:34:02;2.63;;;0.77;;
48014;SDS011;33780;51.034;7.120;2023-07-20T00:36:28;3.17;;;0.85;;
48014;SDS011;33780;51.034;7.120;2023-07-20T00:38:54;2.55;;;0.90;;
48014;SDS011;33780;51.034;7.120;2023-07-20T00:41:20;3.47;;;1.00;;
48014;SDS011;33780;51.034;7.120;2023-07-20T00:43:46;1.67;;;0.82;;
48014;SDS011;33780;51.034;7.120;2023-07-20T00:46:12;3.70;;;1.30;;
48014;SDS011;33780;51.034;7.120;2023-07-20T00:48:44;2.25;;;1.05;;
48014;SDS011;33780;51.034;7.120;2023-07-20T00:51:12;1.33;;;0.70;;
48014;SDS011;33780;51.034;7.120;2023-07-20T00:53:38;1.55;;;0.80;;
48014;SDS011;33780;51.034;7.120;2023-07-20T00:56:04;1.88;;;0.98;;
48014;SDS011;33780;51.034;7.120;2023-07-20T00:58:32;3.70;;;0.90;;
48014;SDS011;33780;51.034;7.120;2023-07-20T01:00:58;3.05;;;0.77;;
48014;SDS011;33780;51.034;7.120;2023-07-20T01:03:24;2.10;;;1.00;;
48014;SDS011;33780;51.034;7.120;2023-07-20T01:05:54;3.58;;;1.08;;
48014;SDS011;33780;51.034;7.120;2023-07-20T01:08:32;2.45;;;0.93;;
48014;SDS011;33780;51.034;7.120;2023-07-20T01:11:10;2.97;;;0.95;;
48014;SDS011;33780;51.034;7.120;2023-07-20T01:13:43;1.70;;;0.82;;
48014;SDS011;33780;51.034;7.120;2023-07-20T01:16:09;2.28;;;0.98;;
48014;SDS011;33780;51.034;7.120;2023-07-20T01:18:38;1.50;;;0.80;;
48014;SDS011;33780;51.034;7.120;2023-07-20T01:21:06;1.60;;;0.80;;
48014;SDS011;33780;51.034;7.120;2023-07-20T01:23:46;2.17;;;1.05;;
48014;SDS011;33780;51.034;7.120;2023-07-20T01:26:48;3.15;;;1.20;;
48014;SDS011;33780;51.034;7.120;2023-07-20T01:32:23;2.65;;;0.80;;
48014;SDS011;33780;51.034;7.120;2023-07-20T01:34:54;3.47;;;0.98;;
48014;SDS011;33780;51.034;7.120;2023-07-20T01:37:21;2.35;;;1.00;;
48014;SDS011;33780;51.034;7.120;2023-07-20T01:42:26;2.70;;;1.10;;
48014;SDS011;33780;51.034;7.120;2023-07-20T01:44:55;2.17;;;0.90;;
48014;SDS011;33780;51.034;7.120;2023-07-20T01:47:21;3.50;;;1.02;;
48014;SDS011;33780;51.034;7.120;2023-07-20T01:49:52;2.42;;;0.93;;
48014;SDS011;33780;51.034;7.120;2023-07-20T01:52:20;2.05;;;0.82;;
48014;SDS011;33780;51.034;7.120;2023-07-20T01:54:48;2.10;;;0.90;;
48014;SDS011;33780;51.034;7.120;2023-07-20T01:57:20;1.50;;;0.88;;
48014;SDS011;33780;51.034;7.120;2023-07-20T01:59:46;1.63;;;0.85;;
48014;SDS011;33780;51.034;7.120;2023-07-20T02:02:14;1.88;;;0.90;;
48014;SDS011;33780;51.034;7.120;2023-07-20T02:04:43;3.05;;;1.10;;
48014;SDS011;33780;51.034;7.120;2023-07-20T02:07:16;2.15;;;0.70;;
48014;SDS011;33780;51.034;7.120;2023-07-20T02:09:42;2.38;;;1.10;;
48014;SDS011;33780;51.034;7.120;2023-07-20T02:12:08;1.50;;;0.85;;
48014;SDS011;33780;51.034;7.120;2023-07-20T02:14:34;2.95;;;1.10;;
48014;SDS011;33780;51.034;7.120;2023-07-20T02:17:03;2.35;;;0.90;;
48014;SDS011;33780;51.034;7.120;2023-07-20T02:19:29;3.63;;;1.17;;
48014;SDS011;33780;51.034;7.120;2023-07-20T02:21:55;4.28;;;0.85;;
48014;SDS011;33780;51.034;7.120;2023-07-20T02:24:21;1.98;;;1.05;;
48014;SDS011;33780;51.034;7.120;2023-07-20T02:26:47;2.67;;;1.10;;
48014;SDS011;33780;51.034;7.120;2023-07-20T02:29:12;2.03;;;1.00;;
48014;SDS011;33780;51.034;7.120;2023-07-20T02:31:38;2.33;;;1.00;;
48014;SDS011;33780;51.034;7.120;2023-07-20T02:34:05;3.55;;;1.10;;
48014;SDS011;33780;51.034;7.120;2023-07-20T02:36:31;4.30;;;1.15;;
48014;SDS011;33780;51.034;7.120;2023-07-20T02:39:02;2.25;;;1.05;;
48014;SDS011;33780;51.034;7.120;2023-07-20T02:41:35;2.17;;;1.13;;
48014;SDS011;33780;51.034;7.120;2023-07-20T02:44:01;3.47;;;0.90;;
48014;SDS011;33780;51.034;7.120;2023-07-20T02:46:28;2.58;;;1.17;;
48014;SDS011;33780;51.034;7.120;2023-07-20T02:48:55;2.40;;;1.05;;
48014;SDS011;33780;51.034;7.120;2023-07-20T02:51:33;2.30;;;1.13;;
48014;SDS011;33780;51.034;7.120;2023-07-20T02:53:59;1.92;;;1.05;;
48014;SDS011;33780;51.034;7.120;2023-07-20T02:56:26;2.92;;;0.93;;
48014;SDS011;33780;51.034;7.120;2023-07-20T02:58:51;2.53;;;1.02;;
48014;SDS011;33780;51.034;7.120;2023-07-20T03:01:18;2.35;;;1.15;;
48014;SDS011;33780;51.034;7.120;2023-07-20T03:03:43;2.42;;;1.05;;
48014;SDS011;33780;51.034;7.120;2023-07-20T03:06:15;2.00;;;1.00;;
48014;SDS011;33780;51.034;7.120;2023-07-20T03:08:44;2.60;;;1.08;;
48014;SDS011;33780;51.034;7.120;2023-07-20T03:11:16;2.90;;;1.00;;
48014;SDS011;33780;51.034;7.120;2023-07-20T03:13:42;3.40;;;1.35;;
48014;SDS011;33780;51.034;7.120;2023-07-20T03:16:13;2.40;;;1.20;;
48014;SDS011;33780;51.034;7.120;2023-07-20T03:18:42;3.00;;;1.00;;
48014;SDS011;33780;51.034;7.120;2023-07-20T03:21:11;2.58;;;1.42;;
48014;SDS011;33780;51.034;7.120;2023-07-20T03:23:40;3.55;;;1.27;;
48014;SDS011;33780;51.034;7.120;2023-07-20T03:26:06;3.38;;;1.02;;
48014;SDS011;33780;51.034;7.120;2023-07-20T03:28:38;1.83;;;0.95;;
48014;SDS011;33780;51.034;7.120;2023-07-20T03:31:04;2.33;;;1.15;;
48014;SDS011;33780;51.034;7.120;2023-07-20T03:33:33;2.38;;;1.00;;
48014;SDS011;33780;51.034;7.120;2023-07-20T03:36:02;3.17;;;1.00;;
48014;SDS011;33780;51.034;7.120;2023-07-20T03:38:30;2.70;;;1.35;;
48014;SDS011;33780;51.034;7.120;2023-07-20T03:41:00;2.67;;;1.27;;
48014;SDS011;33780;51.034;7.120;2023-07-20T03:43:26;2.58;;;1.13;;
48014;SDS011;33780;51.034;7.120;2023-07-20T03:46:03;1.80;;;0.90;;
48014;SDS011;33780;51.034;7.120;2023-07-20T03:48:32;2.58;;;1.20;;
48014;SDS011;33780;51.034;7.120;2023-07-20T03:50:58;3.50;;;0.93;;
48014;SDS011;33780;51.034;7.120;2023-07-20T03:53:27;2.08;;;1.08;;
48014;SDS011;33780;51.034;7.120;2023-07-20T03:55:58;2.53;;;1.20;;
48014;SDS011;33780;51.034;7.120;2023-07-20T03:58:24;4.07;;;1.40;;
48014;SDS011;33780;51.034;7.120;2023-07-20T04:00:55;2.75;;;1.27;;
48014;SDS011;33780;51.034;7.120;2023-07-20T04:03:23;3.63;;;1.27;;
48014;SDS011;33780;51.034;7.120;2023-07-20T04:05:55;2.67;;;1.50;;
48014;SDS011;33780;51.034;7.120;2023-07-20T04:08:31;2.05;;;1.02;;
48014;SDS011;33780;51.034;7.120;2023-07-20T04:11:00;3.22;;;1.23;;
48014;SDS011;33780;51.034;7.120;2023-07-20T04:13:27;2.63;;;1.38;;
48014;SDS011;33780;51.034;7.120;2023-07-20T04:15:53;2.10;;;1.13;;
48014;SDS011;33780;51.034;7.120;2023-07-20T04:18:21;3.70;;;1.60;;
48014;SDS011;33780;51.034;7.120;2023-07-20T04:20:47;5.68;;;1.38;;
48014;SDS011;33780;51.034;7.120;2023-07-20T04:23:13;3.05;;;1.30;;
48014;SDS011;33780;51.034;7.120;2023-07-20T04:25:39;2.65;;;1.13;;
48014;SDS011;33780;51.034;7.120;2023-07-20T04:28:13;2.67;;;1.50;;
48014;SDS011;33780;51.034;7.120;2023-07-20T04:30:50;5.60;;;1.70;;
48014;SDS011;33780;51.034;7.120;2023-07-20T04:33:23;5.10;;;1.50;;
48014;SDS011;33780;51.034;7.120;2023-07-20T04:35:55;5.32;;;1.60;;
48014;SDS011;33780;51.034;7.120;2023-07-20T04:38:29;3.92;;;1.70;;
48014;SDS011;33780;51.034;7.120;2023-07-20T04:41:00;4.50;;;1.55;;
48014;SDS011;33780;51.034;7.120;2023-07-20T04:43:31;3.83;;;1.48;;
48014;SDS011;33780;51.034;7.120;2023-07-20T04:45:57;4.38;;;1.20;;
48014;SDS011;33780;51.034;7.120;2023-07-20T04:48:23;3.60;;;1.52;;
48014;SDS011;33780;51.034;7.120;2023-07-20T04:50:48;5.88;;;1.58;;
48014;SDS011;33780;51.034;7.120;2023-07-20T04:53:14;3.30;;;1.30;;
48014;SDS011;33780;51.034;7.120;2023-07-20T04:55:40;3.63;;;1.65;;
48014;SDS011;33780;51.034;7.120;2023-07-20T04:58:06;3.55;;;1.45;;
48014;SDS011;33780;51.034;7.120;2023-07-20T05:00:32;2.30;;;1.10;;
48014;SDS011;33780;51.034;7.120;2023-07-20T05:03:05;3.97;;;1.30;;
48014;SDS011;33780;51.034;7.120;2023-07-20T05:05:33;3.72;;;1.38;;
48014;SDS011;33780;51.034;7.120;2023-07-20T05:08:13;4.20;;;1.80;;
48014;SDS011;33780;51.034;7.120;2023-07-20T05:10:44;3.40;;;1.75;;
48014;SDS011;33780;51.034;7.120;2023-07-20T05:13:10;5.18;;;1.35;;
48014;SDS011;33780;51.034;7.120;2023-07-20T05:15:41;4.50;;;1.77;;
48014;SDS011;33780;51.034;7.120;2023-07-20T05:21:26;4.43;;;1.63;;
48014;SDS011;33780;51.034;7.120;2023-07-20T05:24:06;6.43;;;1.83;;
48014;SDS011;33780;51.034;7.120;2023-07-20T05:26:44;4.82;;;1.45;;
48014;SDS011;33780;51.034;7.120;2023-07-20T05:29:27;3.65;;;1.40;;
48014;SDS011;33780;51.034;7.120;2023-07-20T05:31:53;4.22;;;1.38;;
48014;SDS011;33780;51.034;7.120;2023-07-20T05:34:18;6.40;;;1.50;;
48014;SDS011;33780;51.034;7.120;2023-07-20T05:36:44;5.65;;;1.77;;
48014;SDS011;33780;51.034;7.120;2023-07-20T05:39:12;3.42;;;1.40;;
48014;SDS011;33780;51.034;7.120;2023-07-20T05:41:44;5.75;;;1.40;;
48014;SDS011;33780;51.034;7.120;2023-07-20T05:44:12;2.88;;;1.60;;
48014;SDS011;33780;51.034;7.120;2023-07-20T05:46:46;4.55;;;1.65;;
48014;SDS011;33780;51.034;7.120;2023-07-20T05:49:13;4.80;;;1.98;;
48014;SDS011;33780;51.034;7.120;2023-07-20T05:51:42;9.55;;;2.00;;
48014;SDS011;33780;51.034;7.120;2023-07-20T05:54:07;5.78;;;1.90;;
48014;SDS011;33780;51.034;7.120;2023-07-20T05:56:33;6.03;;;2.20;;
48014;SDS011;33780;51.034;7.120;2023-07-20T05:58:58;5.07;;;2.20;;
48014;SDS011;33780;51.034;7.120;2023-07-20T06:01:23;4.65;;;2.15;;
48014;SDS011;33780;51.034;7.120;2023-07-20T06:03:52;6.20;;;2.53;;
48014;SDS011;33780;51.034;7.120;2023-07-20T06:06:17;6.07;;;2.45;;
48014;SDS011;33780;51.034;7.120;2023-07-20T06:08:43;4.45;;;2.35;;
48014;SDS011;33780;51.034;7.120;2023-07-20T06:11:08;5.75;;;2.63;;
48014;SDS011;33780;51.034;7.120;2023-07-20T06:13:33;7.82;;;3.00;;
48014;SDS011;33780;51.034;7.120;2023-07-20T06:15:59;5.07;;;2.50;;
48014;SDS011;33780;51.034;7.120;2023-07-20T06:18:24;8.38;;;3.60;;
48014;SDS011;33780;51.034;7.120;2023-07-20T06:20:52;6.65;;;3.40;;
48014;SDS011;33780;51.034;7.120;2023-07-20T06:23:21;6.40;;;3.35;;
48014;SDS011;33780;51.034;7.120;2023-07-20T06:25:46;7.40;;;3.47;;
48014;SDS011;33780;51.034;7.120;2023-07-20T06:28:12;5.80;;;3.50;;
48014;SDS011;33780;51.034;7.120;2023-07-20T06:30:38;5.20;;;3.08;;
48014;SDS011;33780;51.034;7.120;2023-07-20T06:33:03;5.35;;;3.22;;
48014;SDS011;33780;51.034;7.120;2023-07-20T06:35:28;6.97;;;3.50;;
48014;SDS011;33780;51.034;7.120;2023-07-20T06:37:54;6.03;;;3.58;;
48014;SDS011;33780;51.034;7.120;2023-07-20T06:40:19;9.38;;;3.90;;
48014;SDS011;33780;51.034;7.120;2023-07-20T06:42:44;6.57;;;3.47;;
48014;SDS011;33780;51.034;7.120;2023-07-20T06:45:10;6.93;;;3.83;;
48014;SDS011;33780;51.034;7.120;2023-07-20T06:47:38;6.68;;;3.55;;
48014;SDS011;33780;51.034;7.120;2023-07-20T06:50:03;7.40;;;3.70;;
48014;SDS011;33780;51.034;7.120;2023-07-20T06:52:29;7.18;;;3.47;;
48014;SDS011;33780;51.034;7.120;2023-07-20T06:54:55;5.70;;;3.35;;
48014;SDS011;33780;51.034;7.120;2023-07-20T06:57:20;9.27;;;3.83;;
48014;SDS011;33780;51.034;7.120;2023-07-20T06:59:45;9.98;;;3.03;;
48014;SDS011;33780;51.034;7.120;2023-07-20T07:02:11;5.45;;;3.10;;
48014;SDS011;33780;51.034;7.120;2023-07-20T07:04:36;6.55;;;3.35;;
48014;SDS011;33780;51.034;7.120;2023-07-20T07:07:01;4.68;;;3.08;;
48014;SDS011;33780;51.034;7.120;2023-07-20T07:09:27;7.47;;;3.10;;
48014;SDS011;33780;51.034;7.120;2023-07-20T07:11:53;7.75;;;3.60;;
48014;SDS011;33780;51.034;7.120;2023-07-20T07:14:19;10.43;;;4.20;;
48014;SDS011;33780;51.034;7.120;2023-07-20T07:16:45;7.32;;;3.90;;
48014;SDS011;33780;51.034;7.120;2023-07-20T07:19:10;6.70;;;3.17;;
48014;SDS011;33780;51.034;7.120;2023-07-20T07:21:36;6.30;;;3.42;;
48014;SDS011;33780;51.034;7.120;2023-07-20T07:24:01;7.78;;;3.20;;
48014;SDS011;33780;51.034;7.120;2023-07-20T07:26:26;6.35;;;3.53;;
48014;SDS011;33780;51.034;7.120;2023-07-20T07:28:51;8.73;;;3.33;;
48014;SDS011;33780;51.034;7.120;2023-07-20T07:31:17;5.85;;;3.38;;
48014;SDS011;33780;51.034;7.120;2023-07-20T07:33:42;8.57;;;3.92;;
48014;SDS011;33780;51.034;7.120;2023-07-20T07:36:07;6.45;;;3.20;;
48014;SDS011;33780;51.034;7.120;2023-07-20T07:38:33;6.45;;;3.40;;
48014;SDS011;33780;51.034;7.120;2023-07-20T07:40:58;5.78;;;3.03;;
48014;SDS011;33780;51.034;7.120;2023-07-20T07:43:24;7.15;;;3.28;;
48014;SDS011;33780;51.034;7.120;2023-07-20T07:45:50;5.93;;;3.00;;
48014;SDS011;33780;51.034;7.120;2023-07-20T07:48:15;6.18;;;2.97;;
48014;SDS011;33780;51.034;7.120;2023-07-20T07:50:40;6.35;;;3.38;;
48014;SDS011;33780;51.034;7.120;2023-07-20T07:53:07;5.60;;;2.45;;
48014;SDS011;33780;51.034;7.120;2023-07-20T07:55:33;4.30;;;2.13;;
48014;SDS011;33780;51.034;7.120;2023-07-20T07:57:58;4.78;;;2.60;;
48014;SDS011;33780;51.034;7.120;2023-07-20T08:00:24;4.95;;;2.47;;
48014;SDS011;33780;51.034;7.120;2023-07-20T08:02:49;7.10;;;2.78;;
48014;SDS011;33780;51.034;7.120;2023-07-20T08:05:15;6.13;;;2.85;;
48014;SDS011;33780;51.034;7.120;2023-07-20T08:07:41;6.47;;;3.22;;
48014;SDS011;33780;51.034;7.120;2023-07-20T08:10:06;5.30;;;2.50;;
48014;SDS011;33780;51.034;7.120;2023-07-20T08:12:32;6.82;;;2.95;;
48014;SDS011;33780;51.034;7.120;2023-07-20T08:14:58;6.03;;;2.50;;
48014;SDS011;33780;51.034;7.120;2023-07-20T08:17:23;3.70;;;1.90;;
48014;SDS011;33780;51.034;7.120;2023-07-20T08:19:49;4.55;;;2.13;;
48014;SDS011;33780;51.034;7.120;2023-07-20T08:22:14;6.20;;;2.10;;
48014;SDS011;33780;51.034;7.120;2023-07-20T08:24:40;3.03;;;1.83;;
48014;SDS011;33780;51.034;7.120;2023-07-20T08:27:07;4.07;;;2.10;;
48014;SDS011;33780;51.034;7.120;2023-07-20T08:29:33;3.60;;;2.25;;
48014;SDS011;33780;51.034;7.120;2023-07-20T08:31:59;4.85;;;2.03;;
48014;SDS011;33780;51.034;7.120;2023-07-20T08:34:24;3.95;;;2.03;;
48014;SDS011;33780;51.034;7.120;2023-07-20T08:36:50;4.25;;;2.00;;
48014;SDS011;33780;51.034;7.120;2023-07-20T08:39:15;2.90;;;1.75;;
48014;SDS011;33780;51.034;7.120;2023-07-20T08:41:41;3.38;;;1.52;;
48014;SDS011;33780;51.034;7.120;2023-07-20T08:44:08;2.72;;;1.40;;
48014;SDS011;33780;51.034;7.120;2023-07-20T08:46:35;3.03;;;1.55;;
48014;SDS011;33780;51.034;7.120;2023-07-20T08:49:03;3.53;;;1.95;;
48014;SDS011;33780;51.034;7.120;2023-07-20T08:51:29;2.50;;;1.50;;
48014;SDS011;33780;51.034;7.120;2023-07-20T08:53:55;2.75;;;1.65;;
48014;SDS011;33780;51.034;7.120;2023-07-20T08:56:21;4.15;;;1.52;;
48014;SDS011;33780;51.034;7.120;2023-07-20T08:58:50;2.90;;;1.40;;
48014;SDS011;33780;51.034;7.120;2023-07-20T09:01:17;3.58;;;1.50;;
48014;SDS011;33780;51.034;7.120;2023-07-20T09:03:44;3.28;;;1.63;;
48014;SDS011;33780;51.034;7.120;2023-07-20T09:06:10;2.88;;;1.50;;
48014;SDS011;33780;51.034;7.120;2023-07-20T09:08:39;2.85;;;1.70;;
48014;SDS011;33780;51.034;7.120;2023-07-20T09:11:05;4.22;;;1.92;;
48014;SDS011;33780;51.034;7.120;2023-07-20T09:13:32;4.43;;;1.50;;
48014;SDS011;33780;51.034;7.120;2023-07-20T09:16:00;2.95;;;1.00;;
48014;SDS011;33780;51.034;7.120;2023-07-20T09:18:26;2.17;;;1.40;;
48014;SDS011;33780;51.034;7.120;2023-07-20T09:20:53;1.92;;;1.25;;
48014;SDS011;33780;51.034;7.120;2023-07-20T09:23:29;2.13;;;1.00;;
48014;SDS011;33780;51.034;7.120;2023-07-20T09:25:56;2.58;;;1.25;;
48014;SDS011;33780;51.034;7.120;2023-07-20T09:28:22;2.40;;;1.27;;
48014;SDS011;33780;51.034;7.120;2023-07-20T09:30:54;2.47;;;1.25;;
48014;SDS011;33780;51.034;7.120;2023-07-20T09:33:43;2.58;;;1.25;;
48014;SDS011;33780;51.034;7.120;2023-07-20T09:36:11;2.10;;;1.10;;
48014;SDS011;33780;51.034;7.120;2023-07-20T09:38:43;2.03;;;1.10;;
48014;SDS011;33780;51.034;7.120;2023-07-20T09:41:13;1.65;;;0.95;;
48014;SDS011;33780;51.034;7.120;2023-07-20T09:43:43;1.85;;;0.98;;
48014;SDS011;33780;51.034;7.120;2023-07-20T09:46:10;1.90;;;1.00;;
48014;SDS011;33780;51.034;7.120;2023-07-20T09:48:36;1.27;;;0.70;;
48014;SDS011;33780;51.034;7.120;2023-07-20T09:51:01;1.60;;;0.80;;
48014;SDS011;33780;51.034;7.120;2023-07-20T09:53:26;2.60;;;0.73;;
48014;SDS011;33780;51.034;7.120;2023-07-20T09:55:53;1.58;;;0.70;;
48014;SDS011;33780;51.034;7.120;2023-07-20T09:58:19;1.38;;;0.80;;
48014;SDS011;33780;51.034;7.120;2023-07-20T10:00:50;1.98;;;0.80;;
48014;SDS011;33780;51.034;7.120;2023-07-20T10:03:22;2.03;;;0.60;;
48014;SDS011;33780;51.034;7.120;2023-07-20T10:06:00;1.33;;;0.60;;
48014;SDS011;33780;51.034;7.120;2023-07-20T10:08:41;2.40;;;0.80;;
48014;SDS011;33780;51.034;7.120;2023-07-20T10:11:07;1.08;;;0.50;;
48014;SDS011;33780;51.034;7.120;2023-07-20T10:13:34;1.70;;;0.63;;
48014;SDS011;33780;51.034;7.120;2023-07-20T10:16:14;1.42;;;0.70;;
48014;SDS011;33780;51.034;7.120;2023-07-20T10:19:07;1.30;;;0.60;;
48014;SDS011;33780;51.034;7.120;2023-07-20T10:22:14;1.40;;;0.50;;
48014;SDS011;33780;51.034;7.120;2023-07-20T10:24:58;2.15;;;0.60;;
48014;SDS011;33780;51.034;7.120;2023-07-20T10:27:35;1.33;;;0.60;;
48014;SDS011;33780;51.034;7.120;2023-07-20T10:30:01;1.73;;;0.50;;
48014;SDS011;33780;51.034;7.120;2023-07-20T10:32:28;1.15;;;0.50;;
48014;SDS011;33780;51.034;7.120;2023-07-20T10:34:55;1.10;;;0.60;;
48014;SDS011;33780;51.034;7.120;2023-07-20T10:40:37;1.60;;;0.88;;
48014;SDS011;33780;51.034;7.120;2023-07-20T10:43:07;2.17;;;0.80;;
48014;SDS011;33780;51.034;7.120;2023-07-20T10:48:04;1.70;;;0.80;;
48014;SDS011;33780;51.034;7.120;2023-07-20T10:50:42;2.75;;;0.70;;
48014;SDS011;33780;51.034;7.120;2023-07-20T10:53:12;1.23;;;0.70;;
48014;SDS011;33780;51.034;7.120;2023-07-20T10:55:37;1.55;;;0.70;;
48014;SDS011;33780;51.034;7.120;2023-07-20T10:58:07;1.98;;;0.60;;
48014;SDS011;33780;51.034;7.120;2023-07-20T11:00:33;0.80;;;0.40;;
48014;SDS011;33780;51.034;7.120;2023-07-20T11:02:59;1.05;;;0.50;;
48014;SDS011;33780;51.034;7.120;2023-07-20T11:08:09;1.50;;;0.70;;
48014;SDS011;33780;51.034;7.120;2023-07-20T11:10:35;1.38;;;0.90;;
48014;SDS011;33780;51.034;7.120;2023-07-20T11:18:22;1.42;;;0.60;;
48014;SDS011;33780;51.034;7.120;2023-07-20T11:20:50;0.88;;;0.40;;
48014;SDS011;33780;51.034;7.120;2023-07-20T11:23:16;2.25;;;0.75;;
48014;SDS011;33780;51.034;7.120;2023-07-20T11:25:42;1.95;;;0.70;;
48014;SDS011;33780;51.034;7.120;2023-07-20T11:28:07;2.15;;;0.60;;
48014;SDS011;33780;51.034;7.120;2023-07-20T11:30:36;1.13;;;0.60;;
48014;SDS011;33780;51.034;7.120;2023-07-20T11:33:02;1.70;;;0.70;;
48014;SDS011;33780;51.034;7.120;2023-07-20T11:35:27;2.35;;;0.60;;
48014;SDS011;33780;51.034;7.120;2023-07-20T11:37:53;1.38;;;0.70;;
48014;SDS011;33780;51.034;7.120;2023-07-20T11:40:18;1.33;;;0.70;;
48014;SDS011;33780;51.034;7.120;2023-07-20T11:42:43;0.90;;;0.50;;
48014;SDS011;33780;51.034;7.120;2023-07-20T11:45:10;3.42;;;0.82;;
48014;SDS011;33780;51.034;7.120;2023-07-20T11:47:39;1.67;;;0.55;;
48014;SDS011;33780;51.034;7.120;2023-07-20T11:50:05;0.93;;;0.50;;
48014;SDS011;33780;51.034;7.120;2023-07-20T11:52:31;1.35;;;0.65;;
48014;SDS011;33780;51.034;7.120;2023-07-20T11:54:57;1.33;;;0.50;;
48014;SDS011;33780;51.034;7.120;2023-07-20T11:57:22;1.10;;;0.60;;
48014;SDS011;33780;51.034;7.120;2023-07-20T11:59:57;2.47;;;0.68;;
48014;SDS011;33780;51.034;7.120;2023-07-20T12:02:27;1.13;;;0.60;;
48014;SDS011;33780;51.034;7.120;2023-07-20T12:04:53;1.33;;;0.60;;
48014;SDS011;33780;51.034;7.120;2023-07-20T12:07:19;1.10;;;0.50;;
48014;SDS011;33780;51.034;7.120;2023-07-20T12:09:44;1.05;;;0.47;;
48014;SDS011;33780;51.034;7.120;2023-07-20T12:12:10;1.45;;;0.68;;
48014;SDS011;33780;51.034;7.120;2023-07-20T12:14:39;1.42;;;0.40;;
48014;SDS011;33780;51.034;7.120;2023-07-20T12:17:07;1.17;;;0.60;;
48014;SDS011;33780;51.034;7.120;2023-07-20T12:19:37;0.90;;;0.40;;
48014;SDS011;33780;51.034;7.120;2023-07-20T12:22:04;1.40;;;0.60;;
48014;SDS011;33780;51.034;7.120;2023-07-20T12:24:29;2.50;;;0.47;;
48014;SDS011;33780;51.034;7.120;2023-07-20T12:26:57;1.00;;;0.52;;
48014;SDS011;33780;51.034;7.120;2023-07-20T12:29:23;1.38;;;0.77;;
48014;SDS011;33780;51.034;7.120;2023-07-20T12:31:48;1.05;;;0.57;;
48014;SDS011;33780;51.034;7.120;2023-07-20T12:34:14;1.08;;;0.60;;
48014;SDS011;33780;51.034;7.120;2023-07-20T12:36:40;0.88;;;0.50;;
48014;SDS011;33780;51.034;7.120;2023-07-20T12:39:05;2.08;;;0.70;;
48014;SDS011;33780;51.034;7.120;2023-07-20T12:41:30;1.00;;;0.55;;
48014;SDS011;33780;51.034;7.120;2023-07-20T12:43:56;1.00;;;0.40;;
48014;SDS011;33780;51.034;7.120;2023-07-20T12:46:22;0.90;;;0.50;;
48014;SDS011;33780;51.034;7.120;2023-07-20T12:48:48;1.00;;;0.50;;
48014;SDS011;33780;51.034;7.120;2023-07-20T12:51:14;0.95;;;0.50;;
48014;SDS011;33780;51.034;7.120;2023-07-20T12:53:39;0.70;;;0.40;;
48014;SDS011;33780;51.034;7.120;2023-07-20T12:56:04;0.75;;;0.40;;
48014;SDS011;33780;51.034;7.120;2023-07-20T12:58:30;1.52;;;0.40;;
48014;SDS011;33780;51.034;7.120;2023-07-20T13:00:55;0.75;;;0.50;;
48014;SDS011;33780;51.034;7.120;2023-07-20T13:03:21;1.92;;;0.45;;
48014;SDS011;33780;51.034;7.120;2023-07-20T13:05:46;1.95;;;0.40;;
48014;SDS011;33780;51.034;7.120;2023-07-20T13:08:12;0.95;;;0.50;;
48014;SDS011;33780;51.034;7.120;2023-07-20T13:10:38;0.90;;;0.40;;
48014;SDS011;33780;51.034;7.120;2023-07-20T13:13:04;1.05;;;0.47;;
48014;SDS011;33780;51.034;7.120;2023-07-20T13:15:30;1.17;;;0.50;;
48014;SDS011;33780;51.034;7.120;2023-07-20T13:17:57;1.10;;;0.50;;
48014;SDS011;33780;51.034;7.120;2023-07-20T13:20:22;1.58;;;0.57;;
48014;SDS011;33780;51.034;7.120;2023-07-20T13:22:48;0.80;;;0.40;;
48014;SDS011;33780;51.034;7.120;2023-07-20T13:25:14;1.85;;;0.43;;
48014;SDS011;33780;51.034;7.120;2023-07-20T13:27:39;0.88;;;0.40;;
48014;SDS011;33780;51.034;7.120;2023-07-20T13:30:04;0.90;;;0.40;;
48014;SDS011;33780;51.034;7.120;2023-07-20T13:32:32;0.75;;;0.43;;
48014;SDS011;33780;51.034;7.120;2023-07-20T13:34:58;0.60;;;0.30;;
48014;SDS011;33780;51.034;7.120;2023-07-20T13:37:24;0.90;;;0.40;;
48014;SDS011;33780;51.034;7.120;2023-07-20T13:39:49;1.60;;;0.40;;
48014;SDS011;33780;51.034;7.120;2023-07-20T13:42:14;1.45;;;0.47;;
48014;SDS011;33780;51.034;7.120;2023-07-20T13:44:40;1.08;;;0.50;;
48014;SDS011;33780;51.034;7.120;2023-07-20T13:47:06;1.00;;;0.40;;
48014;SDS011;33780;51.034;7.120;2023-07-20T13:49:31;0.70;;;0.40;;
48014;SDS011;33780;51.034;7.120;2023-07-20T13:51:57;1.23;;;0.50;;
48014;SDS011;33780;51.034;7.120;2023-07-20T13:54:23;1.25;;;0.50;;
48014;SDS011;33780;51.034;7.120;2023-07-20T13:56:48;1.33;;;0.50;;
48014;SDS011;33780;51.034;7.120;2023-07-20T13:59:14;0.90;;;0.45;;
48014;SDS011;33780;51.034;7.120;2023-07-20T14:01:39;1.48;;;0.40;;
48014;SDS011;33780;51.034;7.120;2023-07-20T14:04:04;0.82;;;0.32;;
48014;SDS011;33780;51.034;7.120;2023-07-20T14:06:30;0.80;;;0.40;;
48014;SDS011;33780;51.034;7.120;2023-07-20T14:08:56;0.60;;;0.32;;
48014;SDS011;33780;51.034;7.120;2023-07-20T14:11:22;1.00;;;0.52;;
48014;SDS011;33780;51.034;7.120;2023-07-20T14:13:48;1.50;;;0.50;;
48014;SDS011;33780;51.034;7.120;2023-07-20T14:16:13;0.95;;;0.40;;
48014;SDS011;33780;51.034;7.120;2023-07-20T14:18:39;1.77;;;0.55;;
48014;SDS011;33780;51.034;7.120;2023-07-20T14:21:04;0.77;;;0.40;;
48014;SDS011;33780;51.034;7.120;2023-07-20T14:23:31;1.35;;;0.50;;
48014;SDS011;33780;51.034;7.120;2023-07-20T14:25:57;0.80;;;0.45;;
48014;SDS011;33780;51.034;7.120;2023-07-20T14:28:22;1.23;;;0.50;;
48014;SDS011;33780;51.034;7.120;2023-07-20T14:30:47;1.10;;;0.40;;
48014;SDS011;33780;51.034;7.120;2023-07-20T14:33:12;0.95;;;0.50;;
48014;SDS011;33780;51.034;7.120;2023-07-20T14:35:38;0.77;;;0.43;;
48014;SDS011;33780;51.034;7.120;2023-07-20T14:38:03;1.38;;;0.50;;
48014;SDS011;33780;51.034;7.120;2023-07-20T14:40:29;0.90;;;0.40;;
48014;SDS011;33780;51.034;7.120;2023-07-20T14:42:55;0.82;;;0.40;;
48014;SDS011;33780;51.034;7.120;2023-07-20T14:45:21;1.40;;;0.52;;
48014;SDS011;33780;51.034;7.120;2023-07-20T14:47:46;1.00;;;0.45;;
48014;SDS011;33780;51.034;7.120;2023-07-20T14:50:14;0.75;;;0.40;;
48014;SDS011;33780;51.034;7.120;2023-07-20T14:52:39;1.90;;;0.65;;
48014;SDS011;33780;51.034;7.120;2023-07-20T14:55:04;0.90;;;0.40;;
48014;SDS011;33780;51.034;7.120;2023-07-20T14:57:30;1.48;;;0.50;;
48014;SDS011;33780;51.034;7.120;2023-07-20T14:59:55;2.15;;;0.50;;
48014;SDS011;33780;51.034;7.120;2023-07-20T15:02:20;1.30;;;0.43;;
48014;SDS011;33780;51.034;7.120;2023-07-20T15:04:50;1.40;;;0.63;;
48014;SDS011;33780;51.034;7.120;2023-07-20T15:07:16;1.40;;;0.60;;
48014;SDS011;33780;51.034;7.120;2023-07-20T15:09:43;1.40;;;0.60;;
48014;SDS011;33780;51.034;7.120;2023-07-20T15:12:09;1.20;;;0.50;;
48014;SDS011;33780;51.034;7.120;2023-07-20T15:14:34;1.08;;;0.60;;